Time;durP1;ratioP1;P1;durP2;ratioP2;P2;SDS_P1;SDS_P2;PMS_P1;PMS_P2;Temp;Humidity;BMP_temperature;BMP_pressure;BME280_temperature;BME280_humidity;BME280_pressure;Samples;Min_cycle;Max_cycle;Signal;HPM_P1;HPM_P2
2023/12/27 00:00:41;;;;;;;2.13;1.93;;;14.30;66.40;;;;;;5006432;28;20545;-62
2023/12/27 00:03:07;;;;;;;3.00;2.10;;;14.30;66.30;;;;;;5006086;28;20205;-59
2023/12/27 00:05:33;;;;;;;4.80;2.10;;;14.30;66.30;;;;;;5004824;28;20300;-61
2023/12/27 00:07:58;;;;;;;4.97;2.77;;;14.30;66.20;;;;;;5006947;28;20214;-60
2023/12/27 00:10:24;;;;;;;3.20;2.30;;;14.10;66.40;;;;;;5006055;28;20174;-61
2023/12/27 00:12:49;;;;;;;4.30;1.90;;;14.10;66.90;;;;;;5007141;28;20181;-60
2023/12/27 00:15:15;;;;;;;2.07;1.80;;;14.20;66.70;;;;;;5005127;28;20686;-60
2023/12/27 00:17:40;;;;;;;7.33;2.10;;;14.20;66.80;;;;;;5006803;28;20182;-61
2023/12/27 00:20:07;;;;;;;1.90;1.70;;;14.30;66.80;;;;;;5006991;28;20248;-62
2023/12/27 00:22:32;;;;;;;3.40;2.03;;;14.30;66.60;;;;;;5005728;28;20678;-62
2023/12/27 00:24:58;;;;;;;3.10;2.10;;;14.30;66.50;;;;;;5005675;28;20476;-62
2023/12/27 00:27:24;;;;;;;3.63;2.10;;;14.30;66.70;;;;;;5007636;28;20191;-61
2023/12/27 00:29:49;;;;;;;3.70;2.73;;;14.30;66.60;;;;;;5010734;28;20475;-62
2023/12/27 00:32:15;;;;;;;3.77;3.10;;;14.30;66.70;;;;;;5009752;28;20593;-59
2023/12/27 00:34:41;;;;;;;4.60;3.03;;;14.30;66.80;;;;;;5009365;28;20193;-61
2023/12/27 00:37:07;;;;;;;3.47;2.67;;;14.30;66.90;;;;;;5010184;28;20297;-61
2023/12/27 00:39:34;;;;;;;5.60;3.47;;;14.30;67.00;;;;;;5009418;28;20191;-60
2023/12/27 00:41:59;;;;;;;2.33;2.07;;;14.30;67.00;;;;;;5010260;28;20424;-60
2023/12/27 00:44:25;;;;;;;2.90;2.70;;;14.30;67.10;;;;;;5008678;28;20479;-60
2023/12/27 00:46:51;;;;;;;2.93;2.63;;;14.30;67.10;;;;;;5009720;28;20255;-60
2023/12/27 00:49:17;;;;;;;4.00;2.83;;;14.30;67.10;;;;;;5009337;28;20209;-62
2023/12/27 00:51:42;;;;;;;4.07;2.60;;;14.30;67.10;;;;;;5010132;28;20197;-61
2023/12/27 00:54:08;;;;;;;3.30;2.43;;;14.20;67.10;;;;;;5009849;28;20938;-61
2023/12/27 00:56:33;;;;;;;2.60;2.40;;;14.20;66.90;;;;;;5008197;28;20203;-62
2023/12/27 00:58:59;;;;;;;3.43;2.50;;;14.20;66.80;;;;;;5010170;28;20236;-61
2023/12/27 01:01:25;;;;;;;3.13;2.33;;;14.20;66.90;;;;;;5007219;28;20186;-61
2023/12/27 01:03:51;;;;;;;3.27;2.93;;;14.20;66.90;;;;;;5009472;28;20221;-62
2023/12/27 01:06:16;;;;;;;4.60;2.50;;;14.20;66.80;;;;;;5008264;28;20447;-62
2023/12/27 01:08:42;;;;;;;4.03;2.90;;;13.90;67.00;;;;;;5009981;28;20676;-60
2023/12/27 01:11:07;;;;;;;4.40;3.00;;;13.90;67.50;;;;;;5009936;28;20181;-60
2023/12/27 01:13:33;;;;;;;4.40;3.13;;;13.90;67.50;;;;;;5009403;28;20193;-60
2023/12/27 01:16:00;;;;;;;2.80;2.60;;;14.00;67.30;;;;;;5009051;28;20237;-61
2023/12/27 01:18:25;;;;;;;3.87;2.80;;;14.00;67.10;;;;;;5007499;28;20182;-60
2023/12/27 01:20:51;;;;;;;4.20;3.00;;;14.00;66.90;;;;;;5009980;28;20440;-60
2023/12/27 01:23:17;;;;;;;4.63;3.00;;;14.00;66.90;;;;;;5008800;28;20545;-62
2023/12/27 01:25:42;;;;;;;5.87;3.23;;;14.00;67.10;;;;;;5008578;28;20646;-61
2023/12/27 01:28:08;;;;;;;4.93;3.30;;;13.70;67.60;;;;;;5009293;28;20198;-61
2023/12/27 01:30:33;;;;;;;5.10;3.00;;;13.30;69.10;;;;;;5008577;28;20186;-62
2023/12/27 01:32:59;;;;;;;10.40;4.03;;;13.40;69.60;;;;;;5009503;28;20197;-61
2023/12/27 01:35:25;;;;;;;4.13;3.73;;;13.50;69.30;;;;;;5003282;28;20516;-61
2023/12/27 01:37:51;;;;;;;4.80;3.40;;;13.50;69.10;;;;;;5008970;28;20193;-61
2023/12/27 01:40:17;;;;;;;4.83;4.40;;;13.70;68.80;;;;;;5008418;28;20429;-63
2023/12/27 01:42:42;;;;;;;4.63;3.30;;;13.70;68.60;;;;;;5009448;28;20189;-61
2023/12/27 01:45:08;;;;;;;4.00;3.20;;;13.70;68.50;;;;;;5008330;28;20222;-60
2023/12/27 01:47:36;;;;;;;5.17;4.17;;;13.70;68.40;;;;;;5007867;28;20194;-59
2023/12/27 01:50:03;;;;;;;5.53;3.80;;;13.70;68.40;;;;;;5009660;28;20432;-61
2023/12/27 01:52:29;;;;;;;5.47;4.63;;;13.70;68.50;;;;;;5007734;28;20421;-61
2023/12/27 01:54:55;;;;;;;7.20;4.33;;;13.60;68.50;;;;;;5008303;28;20420;-61
2023/12/27 01:57:20;;;;;;;10.10;5.13;;;13.60;68.60;;;;;;5007571;28;20797;-60
2023/12/27 01:59:46;;;;;;;11.27;4.00;;;13.60;68.80;;;;;;5008999;28;20269;-60
2023/12/27 02:02:13;;;;;;;4.47;3.90;;;13.50;69.10;;;;;;5007617;28;20181;-62
2023/12/27 02:04:39;;;;;;;4.87;3.90;;;13.20;70.00;;;;;;5007677;28;20229;-58
2023/12/27 02:07:05;;;;;;;5.43;3.47;;;13.10;71.00;;;;;;5008465;28;20438;-60
2023/12/27 02:09:31;;;;;;;4.30;3.90;;;13.10;71.30;;;;;;5007808;28;20198;-61
2023/12/27 02:11:57;;;;;;;5.23;4.27;;;13.10;71.20;;;;;;5008848;28;20433;-62
2023/12/27 02:14:22;;;;;;;5.10;3.70;;;13.20;71.20;;;;;;5007839;28;20270;-61
2023/12/27 02:16:49;;;;;;;4.03;3.57;;;13.30;70.80;;;;;;5008653;28;20206;-61
2023/12/27 02:19:20;;;;;;;5.80;4.80;;;13.30;70.60;;;;;;5006172;28;20182;-60
2023/12/27 02:21:48;;;;;;;6.03;4.40;;;13.30;70.30;;;;;;5002126;28;20444;-61
2023/12/27 02:24:15;;;;;;;4.87;4.23;;;13.30;70.50;;;;;;5007981;28;20480;-60
2023/12/27 02:26:41;;;;;;;5.63;4.80;;;13.20;70.60;;;;;;5007312;28;20505;-60
2023/12/27 02:29:07;;;;;;;4.10;3.70;;;13.20;71.10;;;;;;5008481;28;20500;-62
2023/12/27 02:31:32;;;;;;;7.13;3.50;;;13.10;71.20;;;;;;5007468;28;20201;-61
2023/12/27 02:33:58;;;;;;;6.90;3.93;;;13.10;71.30;;;;;;5008368;28;20281;-61
2023/12/27 02:36:24;;;;;;;6.80;3.53;;;13.20;71.10;;;;;;5006163;28;20216;-59
2023/12/27 02:38:50;;;;;;;5.10;3.97;;;13.20;70.50;;;;;;5008387;28;20428;-62
2023/12/27 02:41:15;;;;;;;5.03;4.00;;;13.30;70.40;;;;;;5007499;28;20197;-61
2023/12/27 02:43:41;;;;;;;4.67;3.90;;;13.20;70.00;;;;;;5008090;28;20190;-61
2023/12/27 02:46:06;;;;;;;4.23;3.83;;;13.00;71.00;;;;;;5007400;28;20689;-62
2023/12/27 02:48:32;;;;;;;7.50;4.00;;;13.00;71.40;;;;;;5006880;28;20559;-59
2023/12/27 02:50:57;;;;;;;6.43;4.20;;;12.90;71.60;;;;;;5007614;28;20491;-59
2023/12/27 02:53:23;;;;;;;4.87;4.37;;;12.80;72.50;;;;;;5006550;28;20186;-60
2023/12/27 02:55:49;;;;;;;4.80;3.43;;;12.80;72.60;;;;;;5007316;28;20221;-60
2023/12/27 02:58:15;;;;;;;4.67;4.23;;;12.80;72.40;;;;;;5006927;28;20425;-59
2023/12/27 03:00:41;;;;;;;3.60;3.30;;;12.80;72.40;;;;;;5007860;28;20237;-62
2023/12/27 03:03:07;;;;;;;3.77;3.40;;;13.00;72.20;;;;;;5007694;28;20691;-57
2023/12/27 03:05:33;;;;;;;5.43;3.30;;;13.00;71.80;;;;;;5006270;28;20478;-60
2023/12/27 03:07:58;;;;;;;4.87;3.20;;;13.00;71.50;;;;;;5007542;28;20673;-62
2023/12/27 03:10:24;;;;;;;4.10;2.50;;;13.00;71.40;;;;;;5007037;28;20185;-61
2023/12/27 03:12:49;;;;;;;3.00;2.70;;;13.00;70.70;;;;;;5007795;28;20185;-61
2023/12/27 03:15:15;;;;;;;5.80;2.83;;;12.90;70.90;;;;;;5006429;28;20244;-59
2023/12/27 03:17:40;;;;;;;3.50;3.20;;;12.80;71.50;;;;;;5007021;28;20181;-60
2023/12/27 03:20:07;;;;;;;6.27;2.77;;;12.80;71.30;;;;;;5008676;28;20285;-62
2023/12/27 03:22:32;;;;;;;4.50;3.13;;;12.90;71.20;;;;;;5006635;28;20210;-61
2023/12/27 03:24:58;;;;;;;3.90;3.50;;;12.80;71.60;;;;;;5006770;28;20503;-61
2023/12/27 03:27:23;;;;;;;3.90;3.27;;;12.80;71.70;;;;;;5006154;28;20182;-60
2023/12/27 03:29:49;;;;;;;3.50;3.20;;;12.90;71.40;;;;;;5007500;28;20193;-62
2023/12/27 03:32:14;;;;;;;4.80;2.90;;;13.00;70.80;;;;;;5006920;28;20588;-61
2023/12/27 03:34:40;;;;;;;6.13;3.70;;;13.10;70.60;;;;;;5006665;28;20563;-61
2023/12/27 03:37:06;;;;;;;5.13;3.07;;;13.10;70.10;;;;;;5006714;28;20741;-61
2023/12/27 03:39:31;;;;;;;4.10;3.27;;;12.80;70.90;;;;;;5006586;28;20317;-62
2023/12/27 03:41:57;;;;;;;6.70;3.63;;;12.70;71.40;;;;;;5007542;28;20197;-61
2023/12/27 03:44:22;;;;;;;4.60;3.80;;;12.70;72.20;;;;;;5006353;28;20684;-61
2023/12/27 03:46:48;;;;;;;5.40;3.70;;;12.80;72.00;;;;;;5006603;28;20679;-60
2023/12/27 03:49:13;;;;;;;8.30;3.30;;;12.80;71.60;;;;;;5007030;28;20186;-61
2023/12/27 03:51:39;;;;;;;3.40;3.10;;;12.80;71.40;;;;;;5006905;28;20212;-60
2023/12/27 03:54:04;;;;;;;5.23;3.80;;;12.50;72.00;;;;;;5007263;28;20639;-61
2023/12/27 03:56:30;;;;;;;3.93;3.03;;;12.40;73.50;;;;;;5005228;28;20256;-60
2023/12/27 03:58:55;;;;;;;5.03;3.60;;;12.50;73.40;;;;;;5007269;28;20555;-60
2023/12/27 04:01:21;;;;;;;8.00;3.33;;;12.60;72.90;;;;;;5005693;28;20221;-60
2023/12/27 04:03:50;;;;;;;3.80;3.27;;;12.70;72.90;;;;;;5011279;28;20198;-61
2023/12/27 04:06:18;;;;;;;3.90;3.23;;;12.60;72.70;;;;;;5009579;28;20248;-61
2023/12/27 04:08:45;;;;;;;6.00;3.53;;;12.70;72.60;;;;;;5007056;28;20432;-60
2023/12/27 04:11:10;;;;;;;3.33;3.03;;;12.70;72.70;;;;;;5011286;28;20453;-59
2023/12/27 04:13:36;;;;;;;3.67;3.10;;;12.70;72.60;;;;;;5010458;28;20449;-61
2023/12/27 04:16:02;;;;;;;4.20;3.00;;;12.70;72.30;;;;;;5010024;28;20360;-62
2023/12/27 04:18:27;;;;;;;5.83;3.27;;;12.70;72.40;;;;;;5010104;28;20641;-61
2023/12/27 04:20:53;;;;;;;6.40;3.03;;;12.60;72.50;;;;;;5011053;28;20186;-61
2023/12/27 04:23:18;;;;;;;4.87;3.20;;;12.50;73.00;;;;;;5010048;28;20275;-61
2023/12/27 04:25:44;;;;;;;5.70;4.23;;;12.50;73.30;;;;;;5010380;28;20213;-60
2023/12/27 04:28:09;;;;;;;4.43;3.90;;;12.50;73.50;;;;;;5010628;28;20182;-62
2023/12/27 04:30:35;;;;;;;5.20;3.33;;;12.60;73.20;;;;;;5009950;28;20302;-61
2023/12/27 04:33:00;;;;;;;3.53;3.17;;;12.80;72.80;;;;;;5010720;28;20504;-61
2023/12/27 04:35:26;;;;;;;4.33;2.90;;;12.70;72.50;;;;;;5009385;28;20193;-61
2023/12/27 04:37:52;;;;;;;5.00;3.33;;;12.70;72.90;;;;;;5010757;28;20593;-60
2023/12/27 04:40:18;;;;;;;6.80;3.90;;;12.70;72.70;;;;;;5009751;28;20174;-62
2023/12/27 04:42:43;;;;;;;3.23;2.60;;;12.60;72.80;;;;;;5010875;28;20198;-62
2023/12/27 04:45:09;;;;;;;3.03;2.83;;;12.50;73.40;;;;;;5009800;28;20469;-61
2023/12/27 04:47:34;;;;;;;5.10;2.50;;;12.40;73.60;;;;;;5009222;28;20174;-60
2023/12/27 04:50:00;;;;;;;7.63;2.70;;;12.50;73.70;;;;;;5010605;28;20244;-61
2023/12/27 04:52:25;;;;;;;4.70;2.97;;;12.40;73.70;;;;;;5009562;28;20178;-62
2023/12/27 04:54:51;;;;;;;11.40;3.93;;;12.20;74.90;;;;;;5009721;28;20186;-61
2023/12/27 04:57:16;;;;;;;3.93;3.37;;;12.20;74.80;;;;;;5009272;28;20178;-62
2023/12/27 04:59:42;;;;;;;3.30;2.90;;;12.10;74.70;;;;;;5010517;28;20552;-61
2023/12/27 05:02:08;;;;;;;5.93;3.50;;;12.20;75.60;;;;;;5008469;28;20665;-62
2023/12/27 05:04:34;;;;;;;4.70;2.80;;;12.30;75.00;;;;;;5007657;28;20218;-65
2023/12/27 05:06:59;;;;;;;4.43;3.03;;;12.30;74.80;;;;;;5008569;28;20499;-60
2023/12/27 05:09:25;;;;;;;4.90;3.50;;;12.50;74.40;;;;;;5008323;28;20269;-61
2023/12/27 05:11:50;;;;;;;3.97;3.23;;;12.70;73.40;;;;;;5009066;28;20224;-59
2023/12/27 05:14:16;;;;;;;6.60;4.70;;;12.80;72.50;;;;;;5007908;28;20751;-62
2023/12/27 05:16:45;;;;;;;3.63;3.33;;;12.90;71.70;;;;;;5007911;28;20233;-63
2023/12/27 05:19:10;;;;;;;4.07;3.70;;;12.80;71.70;;;;;;5008823;28;20189;-59
2023/12/27 05:21:36;;;;;;;4.23;3.10;;;12.80;71.40;;;;;;5007819;28;20433;-62
2023/12/27 05:24:02;;;;;;;3.53;3.00;;;12.60;71.70;;;;;;5008779;28;20221;-62
2023/12/27 05:26:27;;;;;;;3.60;3.23;;;12.40;72.10;;;;;;5006776;28;20198;-61
2023/12/27 05:28:53;;;;;;;7.50;3.37;;;12.30;72.50;;;;;;5008855;28;20178;-60
2023/12/27 05:31:19;;;;;;;4.90;2.83;;;12.30;72.80;;;;;;5007837;28;20178;-62
2023/12/27 05:33:44;;;;;;;4.77;3.30;;;12.40;72.60;;;;;;5009009;28;20186;-62
2023/12/27 05:36:10;;;;;;;5.00;4.00;;;12.30;72.30;;;;;;5007563;28;20603;-63
2023/12/27 05:38:36;;;;;;;4.00;3.60;;;12.10;73.00;;;;;;5007876;28;20537;-60
2023/12/27 05:41:03;;;;;;;6.23;4.10;;;12.00;74.30;;;;;;5008740;28;20193;-62
2023/12/27 05:43:29;;;;;;;8.43;4.23;;;12.00;74.60;;;;;;5007894;28;20462;-61
2023/12/27 05:45:54;;;;;;;6.47;3.83;;;11.90;74.40;;;;;;5007463;28;20511;-60
2023/12/27 05:48:20;;;;;;;3.90;3.50;;;11.70;74.50;;;;;;5007958;28;20177;-62
2023/12/27 05:50:46;;;;;;;5.27;3.47;;;11.50;76.40;;;;;;5008749;28;20200;-61
2023/12/27 05:53:11;;;;;;;6.33;3.50;;;11.50;75.90;;;;;;5008571;28;20182;-63
2023/12/27 05:55:37;;;;;;;11.97;6.57;;;11.70;76.30;;;;;;5007053;28;20444;-60
2023/12/27 05:58:03;;;;;;;15.43;7.03;;;11.60;75.90;;;;;;5008140;28;20182;-62
2023/12/27 06:00:28;;;;;;;12.00;6.90;;;11.60;75.30;;;;;;5007428;28;20773;-63
2023/12/27 06:02:54;;;;;;;9.73;6.20;;;11.80;75.30;;;;;;5008186;28;20504;-62
2023/12/27 06:05:22;;;;;;;7.07;4.90;;;11.90;74.20;;;;;;4965515;28;1217110;-62
2023/12/27 06:07:47;;;;;;;6.87;4.70;;;12.00;73.50;;;;;;5009561;28;20688;-61
2023/12/27 06:10:13;;;;;;;6.00;4.07;;;12.10;72.90;;;;;;5009115;28;20456;-60
2023/12/27 06:12:39;;;;;;;6.90;3.73;;;12.10;72.50;;;;;;5008823;28;20277;-62
2023/12/27 06:15:05;;;;;;;4.50;3.40;;;12.20;72.10;;;;;;5008199;28;20861;-60
2023/12/27 06:17:30;;;;;;;4.50;3.90;;;12.30;71.70;;;;;;5007642;28;20637;-62
2023/12/27 06:19:56;;;;;;;3.53;3.17;;;12.40;71.40;;;;;;5008962;28;20436;-59
2023/12/27 06:22:21;;;;;;;6.40;3.43;;;12.30;70.80;;;;;;5008113;28;20182;-61
2023/12/27 06:24:47;;;;;;;4.93;3.90;;;12.30;70.90;;;;;;5007598;28;20297;-62
2023/12/27 06:27:12;;;;;;;4.70;3.40;;;12.40;70.70;;;;;;5008157;28;20249;-61
2023/12/27 06:29:39;;;;;;;4.37;3.57;;;12.30;70.60;;;;;;5008018;28;20224;-60
2023/12/27 06:32:05;;;;;;;4.23;3.40;;;12.30;70.80;;;;;;5008799;28;20190;-58
2023/12/27 06:34:31;;;;;;;5.30;3.70;;;12.30;70.70;;;;;;5007571;28;20424;-62
2023/12/27 06:36:56;;;;;;;5.23;3.73;;;12.20;70.30;;;;;;5007874;28;20460;-62
2023/12/27 06:39:22;;;;;;;3.50;3.20;;;12.20;70.30;;;;;;5007676;28;20197;-61
2023/12/27 06:41:48;;;;;;;7.00;4.10;;;12.20;70.30;;;;;;5008807;28;20257;-62
2023/12/27 06:44:13;;;;;;;5.80;4.50;;;12.20;70.00;;;;;;5008196;28;20206;-60
2023/12/27 06:46:39;;;;;;;5.00;4.50;;;12.10;70.50;;;;;;5006835;28;20491;-61
2023/12/27 06:49:05;;;;;;;4.43;4.03;;;12.10;70.70;;;;;;5008428;28;20622;-61
2023/12/27 06:51:30;;;;;;;5.43;4.80;;;12.10;70.70;;;;;;5007608;28;20240;-60
2023/12/27 06:53:56;;;;;;;4.73;4.10;;;12.20;70.60;;;;;;5008270;28;20186;-59
2023/12/27 06:56:21;;;;;;;7.30;4.17;;;12.30;70.20;;;;;;5006423;28;20214;-62
2023/12/27 06:58:47;;;;;;;4.40;4.00;;;12.30;69.80;;;;;;5008382;28;20185;-62
2023/12/27 07:01:14;;;;;;;5.40;4.90;;;12.30;69.60;;;;;;5006280;28;20339;-62
2023/12/27 07:03:40;;;;;;;6.37;4.43;;;12.40;69.50;;;;;;5007716;28;20194;-59
2023/12/27 07:06:06;;;;;;;5.13;4.40;;;12.30;69.30;;;;;;5007009;28;21062;-62
2023/12/27 07:08:31;;;;;;;5.90;3.90;;;12.40;69.20;;;;;;5007218;28;20573;-62
2023/12/27 07:10:57;;;;;;;6.43;3.43;;;12.40;68.80;;;;;;5007988;28;20257;-61
2023/12/27 07:13:23;;;;;;;4.90;3.80;;;12.40;69.00;;;;;;5007005;28;20428;-59
2023/12/27 07:15:48;;;;;;;4.10;3.80;;;12.40;69.00;;;;;;5006885;28;20691;-62
2023/12/27 07:18:14;;;;;;;4.80;3.80;;;12.30;69.10;;;;;;5005822;28;20193;-61
2023/12/27 07:20:39;;;;;;;5.43;3.47;;;12.20;69.20;;;;;;5008965;28;20194;-62
2023/12/27 07:23:05;;;;;;;5.03;3.30;;;12.30;69.50;;;;;;5008536;28;20267;-62
2023/12/27 07:25:31;;;;;;;3.50;3.20;;;12.20;69.10;;;;;;5007002;28;20725;-61
2023/12/27 07:27:56;;;;;;;2.97;2.67;;;12.30;69.50;;;;;;5008766;28;20657;-59
2023/12/27 07:30:22;;;;;;;5.07;3.07;;;12.20;69.50;;;;;;5007890;28;20653;-62
2023/12/27 07:32:47;;;;;;;5.70;3.63;;;12.30;69.60;;;;;;5008842;28;20565;-63
2023/12/27 07:35:13;;;;;;;4.87;3.77;;;12.40;69.90;;;;;;5007135;28;20336;-60
2023/12/27 07:37:40;;;;;;;6.50;3.90;;;12.60;69.60;;;;;;5008308;28;20188;-61
2023/12/27 07:40:06;;;;;;;7.70;4.20;;;12.70;67.90;;;;;;5008829;28;20272;-63
2023/12/27 07:42:32;;;;;;;4.80;3.70;;;12.60;67.70;;;;;;5007583;28;20915;-62
2023/12/27 07:44:57;;;;;;;6.40;4.03;;;12.40;68.30;;;;;;5007642;28;20468;-61
2023/12/27 07:47:23;;;;;;;6.63;3.80;;;12.30;68.90;;;;;;5007027;28;20598;-62
2023/12/27 07:49:48;;;;;;;3.30;3.10;;;12.40;69.00;;;;;;5008355;28;20184;-62
2023/12/27 07:52:14;;;;;;;5.10;4.10;;;12.10;69.70;;;;;;5007775;28;20174;-62
2023/12/27 07:54:39;;;;;;;4.67;3.97;;;12.10;69.90;;;;;;5007453;28;20604;-60
2023/12/27 07:57:05;;;;;;;3.67;3.30;;;12.10;70.00;;;;;;5008323;28;20201;-61
2023/12/27 07:59:31;;;;;;;6.27;4.00;;;12.10;70.00;;;;;;5007676;28;20277;-62
2023/12/27 08:01:57;;;;;;;5.83;4.33;;;12.00;70.40;;;;;;5008624;28;20178;-62
2023/12/27 08:04:22;;;;;;;10.83;7.87;;;12.10;70.30;;;;;;5007317;28;20229;-61
2023/12/27 08:06:49;;;;;;;8.93;5.83;;;12.20;69.80;;;;;;5007780;28;20252;-60
2023/12/27 08:09:15;;;;;;;9.60;4.63;;;12.20;69.60;;;;;;5007833;28;20174;-61
2023/12/27 08:11:40;;;;;;;5.60;4.50;;;12.30;69.40;;;;;;5008088;28;20460;-62
2023/12/27 08:14:06;;;;;;;5.63;4.23;;;12.40;69.00;;;;;;5008266;28;20870;-63
2023/12/27 08:16:32;;;;;;;5.10;4.10;;;12.40;68.50;;;;;;5006795;28;20210;-62
2023/12/27 08:18:57;;;;;;;7.97;3.90;;;12.50;68.00;;;;;;5008781;28;20261;-59
2023/12/27 08:21:23;;;;;;;5.50;4.13;;;12.30;68.10;;;;;;5007443;28;20544;-61
2023/12/27 08:23:49;;;;;;;4.30;3.90;;;12.30;68.30;;;;;;5008151;28;20210;-60
2023/12/27 08:26:14;;;;;;;8.97;4.83;;;12.30;68.50;;;;;;5006696;28;20225;-60
2023/12/27 08:28:40;;;;;;;5.03;4.03;;;12.30;68.40;;;;;;5008020;28;20433;-60
2023/12/27 08:31:06;;;;;;;7.77;4.10;;;12.40;68.20;;;;;;5008187;28;20457;-60
2023/12/27 08:33:35;;;;;;;5.83;4.50;;;12.50;68.00;;;;;;5007368;28;20197;-60
2023/12/27 08:36:01;;;;;;;11.23;5.20;;;12.50;67.80;;;;;;5004137;28;20790;-60
2023/12/27 08:38:27;;;;;;;11.20;6.33;;;12.60;68.00;;;;;;5006907;28;20486;-60
2023/12/27 08:40:53;;;;;;;7.80;6.90;;;12.60;68.00;;;;;;5007811;28;20971;-60
2023/12/27 08:43:19;;;;;;;9.50;6.17;;;12.60;68.10;;;;;;5007429;28;20425;-60
2023/12/27 08:45:46;;;;;;;6.80;5.10;;;12.60;68.30;;;;;;5007306;28;20691;-59
2023/12/27 08:48:12;;;;;;;7.20;6.00;;;12.40;68.80;;;;;;5009653;28;20182;-61
2023/12/27 08:50:38;;;;;;;8.13;5.83;;;12.10;70.40;;;;;;5011010;28;20435;-61
2023/12/27 08:53:04;;;;;;;4.77;4.37;;;12.00;71.20;;;;;;5007459;28;20464;-60
2023/12/27 08:55:30;;;;;;;4.70;4.30;;;12.00;71.20;;;;;;5009829;28;20451;-61
2023/12/27 08:57:55;;;;;;;4.80;3.97;;;12.10;71.30;;;;;;5011541;28;20413;-60
2023/12/27 09:00:21;;;;;;;6.20;3.57;;;12.20;71.20;;;;;;5010589;28;20764;-61
2023/12/27 09:02:47;;;;;;;4.20;3.80;;;12.20;71.50;;;;;;5011522;28;20186;-60
2023/12/27 09:05:12;;;;;;;3.60;3.30;;;12.20;71.10;;;;;;5010198;28;20225;-59
2023/12/27 09:07:38;;;;;;;5.67;3.47;;;12.20;71.40;;;;;;5010903;28;20557;-60
2023/12/27 09:10:04;;;;;;;3.40;3.10;;;12.20;72.00;;;;;;5011110;28;20174;-61
2023/12/27 09:12:30;;;;;;;5.20;3.30;;;12.20;72.70;;;;;;5010413;28;20516;-61
2023/12/27 09:14:56;;;;;;;4.60;3.80;;;12.00;75.00;;;;;;5010400;28;20523;-60
2023/12/27 09:17:22;;;;;;;6.27;4.10;;;12.20;75.30;;;;;;5010461;28;20650;-60
2023/12/27 09:19:47;;;;;;;3.43;3.13;;;12.30;75.10;;;;;;5010997;28;20645;-60
2023/12/27 09:22:13;;;;;;;5.23;3.73;;;12.30;73.20;;;;;;5010797;28;20184;-60
2023/12/27 09:24:39;;;;;;;7.63;3.30;;;12.30;72.30;;;;;;5009678;28;20309;-60
2023/12/27 09:27:04;;;;;;;3.20;2.90;;;12.20;71.10;;;;;;5010874;28;20728;-60
2023/12/27 09:29:30;;;;;;;4.07;2.97;;;12.20;71.60;;;;;;5010266;28;20425;-61
2023/12/27 09:31:56;;;;;;;3.33;3.00;;;12.20;71.20;;;;;;5010861;28;20646;-60
2023/12/27 09:34:22;;;;;;;4.40;3.30;;;12.10;70.60;;;;;;5009950;28;20452;-60
2023/12/27 09:36:47;;;;;;;4.20;3.17;;;12.20;72.70;;;;;;5010130;28;20528;-60
2023/12/27 09:39:13;;;;;;;4.03;2.80;;;12.10;71.90;;;;;;5010401;28;20174;-60
2023/12/27 09:41:40;;;;;;;3.07;2.77;;;12.30;71.20;;;;;;5010140;28;20253;-60
2023/12/27 09:44:08;;;;;;;3.20;2.40;;;12.40;68.20;;;;;;5010549;28;20265;-60
2023/12/27 09:46:37;;;;;;;2.43;2.23;;;12.20;67.80;;;;;;5008945;28;20536;-60
2023/12/27 09:49:02;;;;;;;3.63;2.50;;;12.30;67.60;;;;;;5010488;28;20432;-60
2023/12/27 09:51:29;;;;;;;2.70;2.50;;;12.40;67.90;;;;;;5009687;28;20803;-60
2023/12/27 09:53:55;;;;;;;5.67;2.93;;;12.60;66.20;;;;;;5010564;28;20224;-60
2023/12/27 09:56:25;;;;;;;4.80;3.20;;;12.90;67.10;;;;;;5009057;28;20828;-60
2023/12/27 09:59:00;;;;;;;2.37;2.17;;;13.40;66.80;;;;;;5010311;28;20444;-60
2023/12/27 10:01:29;;;;;;;5.20;2.57;;;13.70;64.40;;;;;;5010093;28;20415;-60
2023/12/27 10:04:04;;;;;;;5.10;2.60;;;13.90;63.80;;;;;;5010046;28;20460;-60
2023/12/27 10:06:51;;;;;;;4.43;2.60;;;14.30;62.20;;;;;;5008880;28;20444;-59
2023/12/27 10:09:17;;;;;;;2.70;2.30;;;14.60;60.00;;;;;;5009462;28;20436;-60
2023/12/27 10:11:43;;;;;;;5.17;2.27;;;14.50;59.00;;;;;;5010330;28;20448;-61
2023/12/27 10:14:09;;;;;;;5.70;2.53;;;14.40;59.00;;;;;;5010244;28;20578;-60
2023/12/27 10:16:38;;;;;;;5.77;4.10;;;14.20;59.20;;;;;;5008467;28;20448;-61
2023/12/27 10:19:05;;;;;;;2.53;2.33;;;14.40;59.00;;;;;;5009838;28;20421;-60
2023/12/27 10:21:43;;;;;;;3.93;2.77;;;14.70;58.70;;;;;;5009211;28;20421;-60
2023/12/27 10:24:12;;;;;;;7.27;2.80;;;14.80;57.60;;;;;;5009751;28;20870;-60
2023/12/27 10:26:38;;;;;;;2.63;2.00;;;14.90;57.30;;;;;;5008514;28;20487;-60
2023/12/27 10:29:05;;;;;;;3.07;2.70;;;14.90;56.40;;;;;;5009719;28;20928;-61
2023/12/27 10:31:30;;;;;;;2.10;1.80;;;15.00;56.70;;;;;;5009148;28;20244;-61
2023/12/27 10:34:00;;;;;;;4.23;2.20;;;15.30;54.20;;;;;;5009688;28;20432;-60
2023/12/27 10:36:26;;;;;;;5.37;2.67;;;15.20;54.30;;;;;;5008930;28;20573;-61
2023/12/27 10:38:51;;;;;;;3.53;2.47;;;15.00;55.10;;;;;;5009480;28;20424;-61
2023/12/27 10:41:17;;;;;;;3.30;2.60;;;15.00;56.20;;;;;;5010021;28;20334;-60
2023/12/27 10:43:43;;;;;;;2.90;2.40;;;15.20;56.50;;;;;;5009674;28;20193;-61
2023/12/27 10:46:09;;;;;;;3.37;2.20;;;15.00;55.60;;;;;;5008845;28;20210;-60
2023/12/27 10:48:39;;;;;;;5.63;2.60;;;15.10;55.90;;;;;;5008870;28;20209;-60
2023/12/27 10:51:07;;;;;;;4.47;3.20;;;15.20;55.90;;;;;;5009479;28;20440;-59
2023/12/27 10:53:37;;;;;;;5.37;2.60;;;15.40;55.50;;;;;;5008493;28;20421;-61
2023/12/27 10:56:03;;;;;;;4.03;2.23;;;15.90;54.10;;;;;;5008457;28;20540;-61
2023/12/27 10:58:33;;;;;;;3.67;2.20;;;16.30;53.10;;;;;;5008667;28;20421;-60
2023/12/27 11:01:00;;;;;;;2.80;2.20;;;16.70;52.00;;;;;;5009309;28;20428;-61
2023/12/27 11:03:29;;;;;;;3.73;2.60;;;17.10;49.80;;;;;;5008427;28;20445;-60
2023/12/27 11:05:57;;;;;;;3.00;2.37;;;17.30;49.40;;;;;;5008399;28;20818;-60
2023/12/27 11:08:24;;;;;;;2.90;2.10;;;17.60;49.00;;;;;;5008359;28;20417;-60
2023/12/27 11:10:52;;;;;;;3.00;1.80;;;17.70;46.80;;;;;;5008900;28;20413;-61
2023/12/27 11:13:20;;;;;;;4.00;2.67;;;18.10;45.50;;;;;;5008389;28;20552;-60
2023/12/27 11:15:47;;;;;;;3.90;2.00;;;18.30;43.90;;;;;;5008388;28;21010;-60
2023/12/27 11:18:12;;;;;;;4.03;2.20;;;18.30;41.10;;;;;;5009035;28;20929;-61
2023/12/27 11:20:40;;;;;;;3.00;2.37;;;18.20;41.10;;;;;;5008430;28;20421;-61
2023/12/27 11:23:06;;;;;;;5.60;2.37;;;18.20;42.20;;;;;;5008961;28;20185;-61
2023/12/27 11:25:32;;;;;;;4.30;2.37;;;18.30;41.60;;;;;;5007432;28;20487;-61
2023/12/27 11:27:59;;;;;;;5.03;2.20;;;18.40;40.60;;;;;;5009038;28;20500;-61
2023/12/27 11:30:26;;;;;;;3.07;2.40;;;18.20;41.70;;;;;;5008237;28;20436;-60
2023/12/27 11:32:53;;;;;;;2.00;1.80;;;18.10;41.70;;;;;;5008902;28;20422;-60
2023/12/27 11:35:29;;;;;;;2.43;1.93;;;18.00;41.30;;;;;;5007350;28;20448;-61
2023/12/27 11:38:22;;;;;;;2.87;1.97;;;18.00;41.30;;;;;;5008842;28;20495;-61
2023/12/27 11:40:51;;;;;;;6.33;2.43;;;18.00;41.00;;;;;;5002155;28;20447;-60
2023/12/27 11:43:46;;;;;;;6.63;3.70;;;17.90;40.60;;;;;;5008011;28;20433;-60
2023/12/27 11:46:13;;;;;;;2.30;1.87;;;17.90;41.90;;;;;;5004349;28;21034;-61
2023/12/27 11:48:38;;;;;;;3.00;2.00;;;17.90;40.90;;;;;;5008144;28;20482;-60
2023/12/27 11:51:32;;;;;;;3.83;2.30;;;17.90;40.80;;;;;;5008755;28;20933;-61
2023/12/27 11:53:58;;;;;;;3.60;2.10;;;18.00;42.10;;;;;;5008679;28;20185;-60
2023/12/27 11:56:30;;;;;;;4.73;2.33;;;18.10;40.80;;;;;;5007113;28;20444;-61
2023/12/27 11:58:56;;;;;;;2.97;2.17;;;18.10;41.10;;;;;;5008648;28;20425;-60
2023/12/27 12:01:28;;;;;;;3.33;2.17;;;18.20;40.90;;;;;;5007994;28;20841;-61
2023/12/27 12:04:29;;;;;;;2.27;2.07;;;18.10;40.70;;;;;;5008559;28;20433;-61
2023/12/27 12:06:54;;;;;;;2.20;2.00;;;18.20;41.00;;;;;;5002101;28;20457;-60
2023/12/27 12:09:38;;;;;;;2.70;2.07;;;18.20;40.60;;;;;;5007880;28;20423;-60
2023/12/27 12:12:19;;;;;;;2.03;1.90;;;18.30;41.00;;;;;;5008793;28;20217;-60
2023/12/27 12:14:45;;;;;;;3.13;2.10;;;18.50;40.80;;;;;;5007883;28;20944;-60
2023/12/27 12:17:13;;;;;;;3.37;2.27;;;18.50;41.70;;;;;;5008499;28;20444;-60
2023/12/27 12:19:39;;;;;;;3.23;2.10;;;18.50;43.30;;;;;;5007944;28;20417;-59
2023/12/27 12:22:05;;;;;;;2.10;1.90;;;18.60;42.30;;;;;;5008484;28;20491;-61
2023/12/27 12:24:32;;;;;;;2.37;2.03;;;18.60;42.90;;;;;;5011427;28;20221;-60
2023/12/27 12:26:59;;;;;;;3.43;2.13;;;18.70;42.50;;;;;;5011689;28;20432;-60
2023/12/27 12:29:25;;;;;;;4.90;2.40;;;18.70;42.60;;;;;;5011659;28;20472;-60
2023/12/27 12:31:51;;;;;;;5.93;2.40;;;18.70;42.10;;;;;;5012401;28;20467;-60
2023/12/27 12:34:17;;;;;;;3.33;2.27;;;18.60;41.70;;;;;;5011652;28;20232;-59
2023/12/27 12:36:43;;;;;;;2.73;2.30;;;18.60;41.00;;;;;;5011452;28;20951;-61
2023/12/27 12:39:09;;;;;;;2.77;2.17;;;18.20;41.50;;;;;;5012154;28;20174;-60
2023/12/27 12:41:34;;;;;;;2.70;2.10;;;18.30;41.60;;;;;;5011726;28;20427;-60